• Join FlightAware (Why Join?)
  • Login
  • US Flag 
12:45PM EDT


 

Airport Tracker/Info


-or-


 

Live Flight TrackerFlight Track Log ✈ AWI3891 ✈ 13-Aug-2014 ✈ KPHL - KBGR

Flight Track Log - Related Links

Times and Time Zones

All times are in EDT time to prevent confusion due to time zone crossing. See the AWI3891 flight status page for this flight to view local times or setup timezone preferences in your user account.

Time Position Orientation Groundspeed Altitude Reporting Facility
EDT Latitude Longitude Course Direction KTS MPH feet Rate Location/Type
02:09PM 39.8667 -75.2833 218° Southwest 145 167 600  Level Philadelphia TRACON
02:09PM 39.8500 -75.3000 218° Southwest 166 191 1,300 2,100 Climbing Philadelphia TRACON
02:10PM 39.8000 -75.3333 207° Southwest 202 232 3,400 2,100 Climbing Philadelphia TRACON
02:11PM 39.7500 -75.3333 180° South 256 295 5,500 2,040 Climbing Philadelphia TRACON
02:12PM 39.7500 -75.2333 90° East 297 342 7,500 1,980 Climbing Philadelphia TRACON
02:13PM 39.7667 -75.0622 83° East 337 388 10,600 1,500 Climbing New York Center
02:14PM 39.7753 -74.9358 85° East 331 381 11,500 720 Climbing New York Center
02:15PM 39.7881 -74.8122 82° East 361 415 12,100 1,260 Climbing New York Center
02:16PM 39.7986 -74.6778 84° East 376 433 14,000 1,560 Climbing New York Center
02:17PM 39.8097 -74.5353 84° East 381 438 15,300 1,200 Climbing New York Center
02:18PM 39.8497 -74.3858 71° East 391 450 16,500 1,140 Climbing New York Center
02:19PM 39.9158 -74.2650 54° Northeast 397 457 17,600 960 Climbing New York Center
02:22PM 40.0686 -73.9689 56° Northeast 436 502 19,700 900 Climbing Boston Center
02:23PM 40.1228 -73.8286 63° Northeast 435 501 20,700 900 Climbing Boston Center
02:24PM 40.1769 -73.6897 63° Northeast 434 499 21,600 720 Climbing Boston Center
02:25PM 40.2317 -73.5469 63° Northeast 436 502 22,300 660 Climbing Boston Center
02:26PM 40.2867 -73.4022 63° Northeast 444 511 23,000 780 Climbing Boston Center
02:27PM 40.3969 -73.2739 42° Northeast 459 528 24,000 960 Climbing Boston Center
02:28PM 40.5017 -73.1831 33° Northeast 455 524 25,000 840 Climbing Boston Center
02:29PM 40.6050 -73.0875 35° Northeast 455 524 25,800 780 Climbing Boston Center
02:30PM 40.7092 -72.9942 34° Northeast 455 524 26,700 900 Climbing Boston Center
02:31PM 40.8119 -72.9003 35° Northeast 455 524 27,700 780 Climbing Boston Center
02:32PM 40.9178 -72.8028 35° Northeast 455 524 28,400 600 Climbing Boston Center
02:33PM 41.0225 -72.7058 35° Northeast 457 526 29,000 240 Climbing Boston Center
02:34PM 41.1303 -72.6050 35° Northeast 469 540 29,000  Level Boston Center
02:35PM 41.2617 -72.4819 35° Northeast 481 554 29,000  Level Boston Center
02:36PM 41.3572 -72.3928 35° Northeast 488 562 29,000  Level Boston Center
02:37PM 41.4936 -72.2639 35° Northeast 499 574 29,000  Level Boston Center
02:38PM 41.6036 -72.1606 35° Northeast 503 579 29,000  Level Boston Center
02:39PM 41.7183 -72.0508 36° Northeast 503 579 29,000  Level Boston Center
02:40PM 41.8333 -71.9411 35° Northeast 505 581 29,000  Level Boston Center
02:41PM 41.9483 -71.8303 36° Northeast 506 582 29,000  Level Boston Center
02:42PM 42.0633 -71.7200 35° Northeast 506 582 29,000  Level Boston Center
02:43PM 42.1778 -71.6086 36° Northeast 506 582 29,000  Level Boston Center
02:44PM 42.3164 -71.4728 36° Northeast 509 586 29,000  Level Boston Center
02:45PM 42.4144 -71.3769 36° Northeast 509 586 29,000  Level Boston Center
02:46PM 42.5300 -71.2650 36° Northeast 508 585 29,000  Level Boston Center
02:47PM 42.6675 -71.1294 36° Northeast 509 586 29,000  Level Boston Center
02:48PM 42.7819 -71.0167 36° Northeast 508 585 29,000  Level Boston Center
02:49PM 42.8967 -70.9014 36° Northeast 508 585 29,000  Level Boston Center
02:50PM 43.0092 -70.7892 36° Northeast 505 581 29,000  Level Boston Center
02:51PM 43.1231 -70.6739 36° Northeast 506 582 29,000  Level Boston Center
02:52PM 43.2364 -70.5600 36° Northeast 506 582 29,000  Level Boston Center
02:53PM 43.3492 -70.4456 36° Northeast 506 582 29,000  Level Boston Center
02:55PM 43.4689 -70.3242 36° Northeast 504 580 29,000  Level Boston Center
02:56PM 43.5808 -70.2078 37° Northeast 502 578 29,000 -960 Level Boston Center
02:57PM 43.6928 -70.0914 37° Northeast 503 579 27,100 -2,220 Descending Boston Center
02:58PM 43.8008 -69.9803 37° Northeast 484 557 24,500 -1,500 Descending Boston Center
02:59PM 43.9278 -69.8489 37° Northeast 477 549 24,000 -480 Descending Boston Center
03:00PM 44.0336 -69.7386 37° Northeast 476 548 23,500 -1,560 Descending Boston Center
03:01PM 44.1372 -69.6294 37° Northeast 467 537 20,900 -2,580 Descending Boston Center
03:02PM 44.2333 -69.5283 37° Northeast 434 499 18,300 -2,520 Descending Boston Center
03:03PM 44.3244 -69.4350 36° Northeast 408 470 15,800 -2,460 Descending Boston Center
03:04PM 44.4258 -69.3847 19° North 389 448 13,300 -2,400 Descending Boston Center
03:05PM 44.5233 -69.3381 19° North 376 433 11,000 -1,800 Descending Boston Center
03:06PM 44.6122 -69.3000 17° North 344 396 9,700 -1,620 Descending Boston Center
03:07PM 44.7128 -69.2669 13° North 316 364 7,700 -1,800 Descending Boston Center
03:08PM 44.7908 -69.2361 16° North 300 345 6,100 -1,620 Descending Boston Center
03:09PM 44.8597 -69.1903 25° Northeast 292 336 4,400 -1,500 Descending Boston Center
03:10PM 44.9203 -69.1319 34° Northeast 275 316 3,100 -720 Descending Boston Center
03:11PM 44.9547 -69.0625 55° Northeast 247 284 3,000 -60 Descending Boston Center
03:12PM 44.9325 -69.0061 119° Southeast 177 204 3,000 -240 Level Boston Center
03:13PM 44.9011 -68.9658 138° Southeast 156 180 2,600 -600 Descending Boston Center
03:14PM 44.8742 -68.9244 133° Southeast 149 171 1,800 -780 Descending Boston Center
03:15PM 44.8475 -68.8858 134° Southeast 143 165 1,100 -720 Descending Boston Center
03:16PM 44.8219 -68.8492 134° Southeast 137 158 400 -720 Descending Boston Center